createdAt,value
2022-09-25T00:00:24.334Z,22.10
2022-09-25T00:01:24.382Z,24.90
2022-09-25T00:02:24.343Z,23.90
2022-09-25T00:03:24.304Z,23.00
2022-09-25T00:04:24.288Z,22.90
2022-09-25T00:05:24.264Z,20.80
2022-09-25T00:06:24.279Z,25.30
2022-09-25T00:07:24.251Z,27.00
2022-09-25T00:08:24.238Z,24.10
2022-09-25T00:09:24.223Z,25.50
2022-09-25T00:10:24.219Z,25.00
2022-09-25T00:11:24.204Z,23.80
2022-09-25T00:12:24.229Z,25.60
2022-09-25T00:13:24.174Z,25.80
2022-09-25T00:14:24.191Z,22.30
2022-09-25T00:15:24.152Z,25.10
2022-09-25T00:16:24.203Z,23.20
2022-09-25T00:17:24.129Z,26.30
2022-09-25T00:18:24.136Z,24.20
2022-09-25T00:19:24.115Z,30.20
2022-09-25T00:20:24.134Z,28.00
2022-09-25T00:21:24.084Z,28.20
2022-09-25T00:22:24.071Z,28.60
2022-09-25T00:23:24.070Z,28.80
2022-09-25T00:24:24.068Z,30.70
2022-09-25T00:25:24.046Z,29.90
2022-09-25T00:26:24.038Z,30.50
2022-09-25T00:27:24.027Z,23.40
2022-09-25T00:28:24.025Z,29.00
2022-09-25T00:29:24.021Z,31.80
2022-09-25T00:30:23.983Z,31.80
2022-09-25T00:31:24.030Z,28.10
2022-09-25T00:32:23.970Z,28.40
2022-09-25T00:33:23.952Z,29.60
2022-09-25T00:34:23.948Z,24.60
2022-09-25T00:35:23.932Z,30.10
2022-09-25T00:36:23.922Z,29.90
2022-09-25T00:37:23.908Z,30.40
2022-09-25T00:38:23.889Z,29.90
2022-09-25T00:39:23.886Z,34.60
2022-09-25T00:40:23.944Z,28.30
2022-09-25T00:41:23.856Z,31.60
2022-09-25T00:42:23.865Z,29.60
2022-09-25T00:43:23.831Z,30.30
2022-09-25T00:44:23.852Z,29.70
2022-09-25T00:45:23.809Z,30.00
2022-09-25T00:46:23.938Z,31.00
2022-09-25T00:47:23.785Z,30.90
2022-09-25T00:48:23.796Z,29.10
2022-09-25T00:49:23.788Z,30.20
2022-09-25T00:50:23.752Z,32.90
2022-09-25T00:51:23.770Z,29.60
2022-09-25T00:52:23.737Z,30.80
2022-09-25T00:53:23.732Z,22.90
2022-09-25T00:54:23.722Z,30.00
2022-09-25T00:55:23.718Z,32.20
2022-09-25T00:56:23.694Z,29.60
2022-09-25T00:57:23.671Z,28.10
2022-09-25T00:58:23.668Z,32.20
2022-09-25T00:59:23.672Z,30.60
2022-09-25T01:00:23.671Z,32.20
2022-09-25T01:01:23.726Z,29.30
2022-09-25T01:02:23.717Z,33.90
2022-09-25T01:03:23.614Z,31.00
2022-09-25T01:04:23.598Z,28.90
2022-09-25T01:05:23.594Z,30.40
2022-09-25T01:06:23.580Z,34.20
2022-09-25T01:07:23.563Z,31.00
2022-09-25T01:08:23.547Z,30.70
2022-09-25T01:09:23.556Z,30.30
2022-09-25T01:10:23.546Z,32.30
2022-09-25T01:11:23.521Z,31.50
2022-09-25T01:12:23.502Z,32.40
2022-09-25T01:13:23.502Z,34.50
2022-09-25T01:14:23.476Z,30.00
2022-09-25T01:15:23.465Z,29.10
2022-09-25T01:16:23.567Z,29.10
2022-09-25T01:17:23.448Z,30.50
2022-09-25T01:18:23.440Z,30.40
2022-09-25T01:19:23.426Z,28.10
2022-09-25T01:20:23.423Z,28.60
2022-09-25T01:21:23.421Z,31.00
2022-09-25T01:22:23.391Z,24.90
2022-09-25T01:23:23.377Z,33.80
2022-09-25T01:24:23.381Z,27.90
2022-09-25T01:25:23.376Z,30.80
2022-09-25T01:26:23.355Z,29.00
2022-09-25T01:27:23.339Z,30.40
2022-09-25T01:28:23.317Z,31.70
2022-09-25T01:29:23.314Z,28.60
2022-09-25T01:30:23.295Z,32.40
2022-09-25T01:31:23.396Z,27.20
2022-09-25T01:32:23.324Z,32.40
2022-09-25T01:33:23.270Z,26.20
2022-09-25T01:34:23.255Z,28.10
2022-09-25T01:35:23.240Z,29.90
2022-09-25T01:36:23.225Z,30.60
2022-09-25T01:37:23.226Z,28.80
2022-09-25T01:38:23.217Z,28.20
2022-09-25T01:39:23.221Z,26.70
2022-09-25T01:40:23.319Z,30.90
2022-09-25T01:41:23.197Z,31.00
2022-09-25T01:42:23.166Z,29.40
2022-09-25T01:43:23.157Z,29.60
2022-09-25T01:44:23.142Z,32.20
2022-09-25T01:45:23.164Z,27.10
2022-09-25T01:46:23.169Z,29.50
2022-09-25T01:47:23.109Z,28.40
2022-09-25T01:48:23.113Z,26.40
2022-09-25T01:49:23.091Z,30.20
2022-09-25T01:50:23.067Z,27.80
2022-09-25T01:51:23.057Z,26.30
2022-09-25T01:52:23.045Z,27.00
2022-09-25T01:53:23.037Z,27.90
2022-09-25T01:54:23.027Z,30.90
2022-09-25T01:55:23.039Z,29.60
2022-09-25T01:56:23.001Z,29.60
2022-09-25T01:57:23.022Z,27.40
2022-09-25T01:58:22.978Z,29.00
2022-09-25T01:59:22.977Z,26.70
2022-09-25T02:00:22.959Z,28.10
2022-09-25T02:01:23.058Z,32.60
2022-09-25T02:02:23.074Z,30.70
2022-09-25T02:03:22.927Z,28.20
2022-09-25T02:04:22.930Z,26.30
2022-09-25T02:05:22.906Z,29.60
2022-09-25T02:06:22.897Z,33.30
2022-09-25T02:07:22.885Z,32.50
2022-09-25T02:08:22.868Z,30.20
2022-09-25T02:09:22.857Z,31.80
2022-09-25T02:10:22.845Z,30.50
2022-09-25T02:11:22.845Z,31.10
2022-09-25T02:12:22.823Z,28.60
2022-09-25T02:13:22.820Z,30.80
2022-09-25T02:14:22.800Z,32.10
2022-09-25T02:15:22.779Z,30.90
2022-09-25T02:16:22.822Z,32.30
2022-09-25T02:17:22.773Z,32.70
2022-09-25T02:18:22.754Z,30.90
2022-09-25T02:19:22.737Z,31.10
2022-09-25T02:20:22.752Z,28.30
2022-09-25T02:21:22.720Z,30.80
2022-09-25T02:22:22.734Z,30.80
2022-09-25T02:23:22.690Z,33.40
2022-09-25T02:24:22.681Z,31.90
2022-09-25T02:25:22.668Z,33.80
2022-09-25T02:26:22.673Z,29.00
2022-09-25T02:27:22.659Z,32.70
2022-09-25T02:28:22.642Z,32.40
2022-09-25T02:29:22.619Z,34.40
2022-09-25T02:30:22.687Z,33.30
2022-09-25T02:31:22.605Z,30.60
2022-09-25T02:32:22.594Z,32.20
2022-09-25T02:33:22.581Z,33.40
2022-09-25T02:34:22.571Z,29.10
2022-09-25T02:35:22.564Z,34.40
2022-09-25T02:36:22.572Z,33.80
2022-09-25T02:37:22.558Z,36.40
2022-09-25T02:38:22.522Z,28.10
2022-09-25T02:39:22.534Z,30.70
2022-09-25T02:40:22.606Z,31.30
2022-09-25T02:41:22.503Z,32.50
2022-09-25T02:42:22.500Z,30.50
2022-09-25T02:43:22.476Z,35.60
2022-09-25T02:44:22.451Z,30.60
2022-09-25T02:45:22.475Z,36.00
2022-09-25T02:46:22.493Z,33.40
2022-09-25T02:47:22.435Z,28.30
2022-09-25T02:48:22.421Z,33.20
2022-09-25T02:49:22.401Z,31.30
2022-09-25T02:50:22.393Z,36.10
2022-09-25T02:51:22.387Z,34.10
2022-09-25T02:52:22.389Z,27.30
2022-09-25T02:53:22.351Z,30.30
2022-09-25T02:54:22.345Z,34.90
2022-09-25T02:55:22.343Z,34.20
2022-09-25T02:56:22.311Z,30.20
2022-09-25T02:57:22.316Z,32.60
2022-09-25T02:58:22.289Z,33.50
2022-09-25T02:59:22.291Z,34.70
2022-09-25T03:00:22.285Z,27.30
2022-09-25T03:01:22.404Z,29.80
2022-09-25T03:02:22.310Z,32.50
2022-09-25T03:03:22.245Z,32.60
2022-09-25T03:04:22.225Z,34.10
2022-09-25T03:05:22.214Z,33.10
2022-09-25T03:06:22.221Z,29.90
2022-09-25T03:07:22.187Z,35.70
2022-09-25T03:08:22.201Z,33.20
2022-09-25T03:09:22.168Z,33.70
2022-09-25T03:10:22.164Z,34.10
2022-09-25T03:11:22.144Z,36.60
2022-09-25T03:12:22.147Z,30.40
2022-09-25T03:13:22.127Z,34.50
2022-09-25T03:14:22.118Z,34.90
2022-09-25T03:15:22.109Z,35.00
2022-09-25T03:16:22.188Z,35.70
2022-09-25T03:17:22.096Z,33.40
2022-09-25T03:18:22.068Z,32.50
2022-09-25T03:19:22.122Z,33.50
2022-09-25T03:20:22.040Z,33.80
2022-09-25T03:21:22.026Z,34.40
2022-09-25T03:22:22.021Z,33.10
2022-09-25T03:23:22.005Z,40.30
2022-09-25T03:24:22.018Z,34.20
2022-09-25T03:25:22.000Z,38.10
2022-09-25T03:26:21.978Z,37.90
2022-09-25T03:27:21.959Z,27.90
2022-09-25T03:28:21.947Z,40.50
2022-09-25T03:29:21.945Z,37.10
2022-09-25T03:30:21.936Z,36.90
2022-09-25T03:31:22.012Z,28.90
2022-09-25T03:32:21.909Z,35.00
2022-09-25T03:33:21.896Z,39.50
2022-09-25T03:34:21.886Z,35.40
2022-09-25T03:35:21.879Z,33.00
2022-09-25T03:36:21.874Z,34.40
2022-09-25T03:37:21.857Z,35.10
2022-09-25T03:38:21.834Z,32.80
2022-09-25T03:39:21.833Z,35.30
2022-09-25T03:40:21.987Z,34.10
2022-09-25T03:41:21.810Z,28.30
2022-09-25T03:42:21.806Z,40.20
2022-09-25T03:43:21.776Z,33.80
2022-09-25T03:44:21.770Z,35.90
2022-09-25T03:45:21.853Z,31.90
2022-09-25T03:46:21.877Z,34.10
2022-09-25T03:47:21.749Z,37.40
2022-09-25T03:48:21.717Z,36.80
2022-09-25T03:49:21.724Z,34.90
2022-09-25T03:50:21.696Z,32.80
2022-09-25T03:51:21.683Z,34.40
2022-09-25T03:52:21.678Z,35.80
2022-09-25T03:53:21.659Z,30.90
2022-09-25T03:54:21.664Z,33.80
2022-09-25T03:55:21.637Z,34.30
2022-09-25T03:56:21.662Z,31.60
2022-09-25T03:57:21.615Z,31.10
2022-09-25T03:58:21.624Z,42.30
2022-09-25T03:59:21.599Z,33.10
2022-09-25T04:00:21.588Z,33.30
2022-09-25T04:01:21.608Z,33.00
2022-09-25T04:02:21.668Z,31.90
2022-09-25T04:03:21.569Z,36.20
2022-09-25T04:04:21.551Z,36.10
2022-09-25T04:05:21.542Z,24.50
2022-09-25T04:06:21.546Z,35.00
2022-09-25T04:07:21.512Z,34.80
2022-09-25T04:08:21.507Z,27.30
2022-09-25T04:09:21.556Z,27.20
2022-09-25T04:10:21.480Z,29.50
2022-09-25T04:11:21.453Z,36.30
2022-09-25T04:12:21.495Z,33.90
2022-09-25T04:13:21.469Z,32.30
2022-09-25T04:14:21.455Z,29.10
2022-09-25T04:15:21.415Z,31.20
2022-09-25T04:16:21.667Z,30.20
2022-09-25T04:17:21.385Z,33.80
2022-09-25T04:18:21.384Z,35.40
2022-09-25T04:19:21.403Z,36.40
2022-09-25T04:20:21.353Z,30.60
2022-09-25T04:21:21.356Z,27.50
2022-09-25T04:22:21.337Z,34.20
2022-09-25T04:23:21.328Z,34.70
2022-09-25T04:24:21.304Z,33.80
2022-09-25T04:25:24.402Z,36.00
2022-09-25T04:26:21.300Z,34.90
2022-09-25T04:27:21.285Z,34.10
2022-09-25T04:28:21.284Z,30.80
2022-09-25T04:29:21.262Z,32.80
2022-09-25T04:30:21.242Z,33.60
2022-09-25T04:31:21.311Z,31.40
2022-09-25T04:32:21.233Z,32.80
2022-09-25T04:33:21.206Z,34.50
2022-09-25T04:34:21.193Z,32.00
2022-09-25T04:35:21.251Z,35.70
2022-09-25T04:36:21.182Z,34.00
2022-09-25T04:37:21.170Z,37.30
2022-09-25T04:38:21.148Z,37.00
2022-09-25T04:39:21.142Z,35.20
2022-09-25T04:40:21.197Z,36.60
2022-09-25T04:41:21.114Z,37.50
2022-09-25T04:42:21.103Z,37.20
2022-09-25T04:43:21.107Z,40.10
2022-09-25T04:44:21.190Z,39.30
2022-09-25T04:45:21.066Z,36.60
2022-09-25T04:46:22.701Z,38.00
2022-09-25T04:47:21.070Z,36.90
2022-09-25T04:48:21.033Z,37.60
2022-09-25T04:49:21.023Z,43.10
2022-09-25T04:50:21.044Z,37.20
2022-09-25T04:51:21.003Z,35.00
2022-09-25T04:52:20.995Z,35.40
2022-09-25T04:53:20.996Z,39.40
2022-09-25T04:54:20.975Z,33.30
2022-09-25T04:55:20.974Z,36.10
2022-09-25T04:56:20.955Z,25.60
2022-09-25T04:57:39.129Z,33.40
2022-09-25T04:58:21.942Z,32.00
2022-09-25T04:59:20.913Z,32.70
2022-09-25T05:00:20.919Z,35.60
2022-09-25T05:01:21.045Z,36.40
2022-09-25T05:02:20.968Z,31.90
2022-09-25T05:03:21.148Z,33.70
2022-09-25T05:04:20.858Z,29.30
2022-09-25T05:05:20.851Z,33.10
2022-09-25T05:06:20.842Z,34.80
2022-09-25T05:07:20.824Z,27.90
2022-09-25T05:08:20.813Z,28.50
2022-09-25T05:09:20.812Z,27.70
2022-09-25T05:10:20.804Z,30.90
2022-09-25T05:11:20.801Z,34.60
2022-09-25T05:12:20.764Z,28.90
2022-09-25T05:13:20.763Z,31.70
2022-09-25T05:14:20.737Z,29.50
2022-09-25T05:15:20.762Z,26.10
2022-09-25T05:16:20.865Z,26.30
2022-09-25T05:17:20.699Z,24.60
2022-09-25T05:18:20.700Z,27.70
2022-09-25T05:19:20.679Z,30.20
2022-09-25T05:20:20.674Z,26.20
2022-09-25T05:21:20.661Z,26.70
2022-09-25T05:22:20.672Z,24.20
2022-09-25T05:23:20.646Z,28.90
2022-09-25T05:24:20.633Z,22.70
2022-09-25T05:25:20.622Z,24.50
2022-09-25T05:26:20.603Z,19.50
2022-09-25T05:27:20.599Z,26.00
2022-09-25T05:28:20.593Z,26.70
2022-09-25T05:29:20.573Z,25.10
2022-09-25T05:30:20.559Z,24.20
2022-09-25T05:31:20.592Z,18.60
2022-09-25T05:32:20.559Z,24.60
2022-09-25T05:33:20.529Z,20.10
2022-09-25T05:34:20.516Z,21.30
2022-09-25T05:35:20.495Z,24.00
2022-09-25T05:36:20.485Z,20.70
2022-09-25T05:37:20.494Z,21.30
2022-09-25T05:38:20.473Z,19.60
2022-09-25T05:39:20.475Z,19.90
2022-09-25T05:40:20.497Z,21.30
2022-09-25T05:41:20.428Z,17.80
2022-09-25T05:42:20.423Z,19.20
2022-09-25T05:43:20.402Z,22.00
2022-09-25T05:44:20.396Z,20.60
2022-09-25T05:45:20.403Z,20.30
2022-09-25T05:46:20.483Z,16.70
2022-09-25T05:47:20.381Z,20.90
2022-09-25T05:48:20.369Z,21.30
2022-09-25T05:49:20.358Z,22.40
2022-09-25T05:50:20.337Z,20.00
2022-09-25T05:51:20.318Z,14.10
2022-09-25T05:52:20.313Z,20.50
2022-09-25T05:53:20.291Z,18.90
2022-09-25T05:54:20.298Z,20.40
2022-09-25T05:55:20.281Z,22.60
2022-09-25T05:56:20.253Z,19.00
2022-09-25T05:57:20.243Z,19.70
2022-09-25T05:58:20.233Z,20.30
2022-09-25T05:59:20.224Z,20.20
2022-09-25T06:00:20.234Z,18.10
2022-09-25T06:01:20.205Z,24.70
2022-09-25T06:02:20.251Z,21.20
2022-09-25T06:03:20.223Z,17.80
2022-09-25T06:04:20.187Z,24.60
2022-09-25T06:05:20.178Z,22.00
2022-09-25T06:06:23.828Z,19.60
2022-09-25T06:07:21.135Z,20.20
2022-09-25T06:08:20.130Z,19.50
2022-09-25T06:09:20.119Z,17.20
2022-09-25T06:10:20.098Z,17.40
2022-09-25T06:11:20.089Z,18.50
2022-09-25T06:12:20.080Z,18.20
2022-09-25T06:13:20.065Z,17.50
2022-09-25T06:14:20.071Z,21.00
2022-09-25T06:15:20.036Z,17.70
2022-09-25T06:16:20.112Z,17.90
2022-09-25T06:17:20.012Z,24.40
2022-09-25T06:18:20.011Z,15.90
2022-09-25T06:19:19.996Z,13.80
2022-09-25T06:20:20.015Z,14.70
2022-09-25T06:21:19.971Z,15.30
2022-09-25T06:22:20.022Z,14.00
2022-09-25T06:23:19.952Z,16.70
2022-09-25T06:24:19.932Z,13.60
2022-09-25T06:25:19.935Z,16.20
2022-09-25T06:26:19.915Z,13.40
2022-09-25T06:27:19.909Z,13.20
2022-09-25T06:28:19.904Z,12.30
2022-09-25T06:29:19.879Z,16.00
2022-09-25T06:30:19.875Z,15.80
2022-09-25T06:31:19.931Z,14.70
2022-09-25T06:32:19.840Z,16.10
2022-09-25T06:33:19.847Z,15.80
2022-09-25T06:34:19.828Z,12.70
2022-09-25T06:35:19.842Z,11.50
2022-09-25T06:36:19.827Z,13.50
2022-09-25T06:37:19.806Z,12.20
2022-09-25T06:38:19.782Z,12.60
2022-09-25T06:39:19.777Z,13.20
2022-09-25T06:40:19.817Z,16.80
2022-09-25T06:41:19.776Z,10.70
2022-09-25T06:42:19.729Z,12.40
2022-09-25T06:43:19.727Z,15.90
2022-09-25T06:44:19.721Z,11.20
2022-09-25T06:45:19.702Z,12.80
2022-09-25T06:46:19.756Z,10.50
2022-09-25T06:47:23.504Z,10.00
2022-09-25T06:48:20.670Z,14.50
2022-09-25T06:49:19.647Z,14.40
2022-09-25T06:50:19.684Z,11.80
2022-09-25T06:51:19.622Z,10.70
2022-09-25T06:52:19.637Z,11.90
2022-09-25T06:53:19.607Z,10.10
2022-09-25T06:54:19.617Z,11.40
2022-09-25T06:55:19.592Z,12.30
2022-09-25T06:56:19.594Z,12.20
2022-09-25T06:57:19.564Z,9.60
2022-09-25T06:58:19.590Z,12.90
2022-09-25T06:59:19.539Z,8.80
2022-09-25T07:00:19.544Z,11.60
2022-09-25T07:01:19.570Z,9.80
2022-09-25T07:02:19.702Z,10.60
2022-09-25T07:03:19.494Z,9.00
2022-09-25T07:04:19.475Z,8.80
2022-09-25T07:05:19.462Z,7.50
2022-09-25T07:06:19.463Z,8.10
2022-09-25T07:07:19.441Z,8.40
2022-09-25T07:08:19.453Z,10.80
2022-09-25T07:09:19.441Z,12.70
2022-09-25T07:10:19.409Z,6.50
2022-09-25T07:11:19.401Z,13.70
2022-09-25T07:12:19.400Z,11.40
2022-09-25T07:13:19.373Z,8.10
2022-09-25T07:14:19.372Z,13.30
2022-09-25T07:15:19.361Z,9.10
2022-09-25T07:16:19.410Z,9.90
2022-09-25T07:17:19.329Z,10.40
2022-09-25T07:18:19.314Z,10.80
2022-09-25T07:19:19.311Z,8.30
2022-09-25T07:20:19.295Z,10.60
2022-09-25T07:21:19.350Z,8.90
2022-09-25T07:22:19.288Z,11.70
2022-09-25T07:23:19.265Z,8.10
2022-09-25T07:24:19.268Z,8.00
2022-09-25T07:25:19.251Z,7.30
2022-09-25T07:26:19.233Z,9.50
2022-09-25T07:27:19.222Z,7.60
2022-09-25T07:28:19.210Z,4.80
2022-09-25T07:29:19.200Z,5.50
2022-09-25T07:30:19.178Z,8.00
2022-09-25T07:31:19.361Z,9.90
2022-09-25T07:32:19.161Z,7.60
2022-09-25T07:33:19.145Z,7.20
2022-09-25T07:34:19.149Z,6.20
2022-09-25T07:35:19.131Z,5.60
2022-09-25T07:36:19.114Z,5.50
2022-09-25T07:37:19.109Z,6.90
2022-09-25T07:38:19.086Z,6.80
2022-09-25T07:39:19.085Z,4.90
2022-09-25T07:40:19.172Z,6.30
2022-09-25T07:41:19.058Z,7.10
2022-09-25T07:42:19.060Z,5.70
2022-09-25T07:43:19.037Z,5.50
2022-09-25T07:44:38.267Z,7.70
2022-09-25T07:45:20.010Z,6.60
2022-09-25T07:46:19.075Z,9.40
2022-09-25T07:47:18.991Z,4.60
2022-09-25T07:48:18.974Z,6.00
2022-09-25T07:49:18.967Z,5.90
2022-09-25T07:50:18.949Z,7.90
2022-09-25T07:51:18.951Z,5.90
2022-09-25T07:52:18.945Z,6.70
2022-09-25T07:53:18.919Z,4.60
2022-09-25T07:54:18.910Z,6.50
2022-09-25T07:55:18.902Z,3.70
2022-09-25T07:56:18.915Z,7.00
2022-09-25T07:57:18.877Z,5.40
2022-09-25T07:58:18.868Z,6.60
2022-09-25T07:59:18.861Z,5.00
2022-09-25T08:00:18.837Z,8.70
2022-09-25T08:01:18.917Z,6.10
2022-09-25T08:02:18.985Z,6.50
2022-09-25T08:03:18.824Z,4.70
2022-09-25T08:04:18.802Z,7.00
2022-09-25T08:05:18.787Z,5.50
2022-09-25T08:06:18.768Z,11.00
2022-09-25T08:07:18.784Z,5.40
2022-09-25T08:08:18.755Z,7.70
2022-09-25T08:09:18.739Z,6.60
2022-09-25T08:10:18.743Z,8.10
2022-09-25T08:11:18.714Z,6.60
2022-09-25T08:12:18.830Z,9.60
2022-09-25T08:13:18.702Z,3.90
2022-09-25T08:14:21.227Z,7.60
2022-09-25T08:15:19.664Z,6.40
2022-09-25T08:16:18.804Z,5.50
2022-09-25T08:17:18.650Z,5.80
2022-09-25T08:18:18.647Z,5.50
2022-09-25T08:19:18.626Z,5.40
2022-09-25T08:20:18.622Z,9.20
2022-09-25T08:21:18.611Z,6.70
2022-09-25T08:22:18.592Z,8.60
2022-09-25T08:23:18.594Z,9.90
2022-09-25T08:24:18.580Z,6.80
2022-09-25T08:25:18.563Z,10.00
2022-09-25T08:26:18.538Z,6.60
2022-09-25T08:27:18.529Z,5.40
2022-09-25T08:28:18.552Z,6.10
2022-09-25T08:29:18.542Z,5.00
2022-09-25T08:30:18.509Z,7.30
2022-09-25T08:31:18.600Z,5.80
2022-09-25T08:32:18.476Z,6.50
2022-09-25T08:33:18.466Z,3.30
2022-09-25T08:34:40.215Z,3.70
2022-09-25T08:35:19.442Z,5.50
2022-09-25T08:36:18.425Z,7.90
2022-09-25T08:37:18.422Z,5.20
2022-09-25T08:38:18.403Z,8.30
2022-09-25T08:39:18.393Z,5.00
2022-09-25T08:40:18.445Z,4.60
2022-09-25T08:41:18.386Z,8.70
2022-09-25T08:42:18.357Z,8.40
2022-09-25T08:43:18.373Z,8.60
2022-09-25T08:44:18.364Z,8.20
2022-09-25T08:45:21.501Z,6.10
2022-09-25T08:46:18.402Z,2.80
2022-09-25T08:47:19.693Z,7.50
2022-09-25T08:48:18.305Z,5.10
2022-09-25T08:49:18.314Z,5.00
2022-09-25T08:50:18.280Z,4.70
2022-09-25T08:51:18.259Z,3.90
2022-09-25T08:52:18.252Z,2.20
2022-09-25T08:53:18.246Z,3.60
2022-09-25T08:54:18.229Z,6.30
2022-09-25T08:55:18.227Z,5.30
2022-09-25T08:56:18.204Z,3.70
2022-09-25T08:57:18.196Z,6.40
2022-09-25T08:58:18.185Z,5.40
2022-09-25T08:59:18.182Z,6.30
2022-09-25T09:00:18.227Z,10.10
2022-09-25T09:01:18.221Z,6.20
2022-09-25T09:02:18.219Z,5.70
2022-09-25T09:03:18.137Z,6.80
2022-09-25T09:04:18.122Z,5.80
2022-09-25T09:05:18.103Z,4.60
2022-09-25T09:06:18.099Z,8.70
2022-09-25T09:07:27.358Z,7.90
2022-09-25T09:08:19.076Z,4.70
2022-09-25T09:09:18.053Z,3.90
2022-09-25T09:10:18.114Z,4.50
2022-09-25T09:11:18.048Z,5.70
2022-09-25T09:12:18.042Z,6.70
2022-09-25T09:13:18.020Z,7.10
2022-09-25T09:14:18.017Z,4.70
2022-09-25T09:15:18.009Z,7.50
2022-09-25T09:16:18.160Z,8.90
2022-09-25T09:17:17.980Z,4.70
2022-09-25T09:18:17.970Z,6.00
2022-09-25T09:19:17.944Z,3.30
2022-09-25T09:20:18.052Z,5.10
2022-09-25T09:21:17.930Z,6.50
2022-09-25T09:22:17.959Z,8.50
2022-09-25T09:23:17.914Z,7.20
2022-09-25T09:24:17.892Z,4.00
2022-09-25T09:25:17.890Z,4.90
2022-09-25T09:26:17.869Z,4.90
2022-09-25T09:27:17.894Z,4.70
2022-09-25T09:28:17.845Z,4.60
2022-09-25T09:29:17.827Z,5.20
2022-09-25T09:30:17.944Z,5.40
2022-09-25T09:31:17.915Z,6.80
2022-09-25T09:32:17.910Z,4.60
2022-09-25T09:33:17.806Z,4.90
2022-09-25T09:34:17.780Z,5.60
2022-09-25T09:35:17.792Z,5.00
2022-09-25T09:36:17.769Z,8.60
2022-09-25T09:37:17.740Z,8.00
2022-09-25T09:38:17.728Z,4.30
2022-09-25T09:39:17.734Z,6.70
2022-09-25T09:40:17.850Z,7.70
2022-09-25T09:41:17.692Z,6.10
2022-09-25T09:42:17.688Z,6.50
2022-09-25T09:43:17.684Z,4.70
2022-09-25T09:44:17.659Z,6.90
2022-09-25T09:45:17.650Z,5.90
2022-09-25T09:46:17.698Z,4.60
2022-09-25T09:47:17.651Z,10.50
2022-09-25T09:48:17.646Z,5.30
2022-09-25T09:49:17.620Z,5.70
2022-09-25T09:50:17.608Z,7.00
2022-09-25T09:51:17.595Z,7.40
2022-09-25T09:52:17.638Z,7.00
2022-09-25T09:53:17.568Z,5.80
2022-09-25T09:54:17.553Z,8.40
2022-09-25T09:55:17.553Z,6.10
2022-09-25T09:56:17.522Z,7.00
2022-09-25T09:57:17.516Z,6.00
2022-09-25T09:58:17.500Z,5.30
2022-09-25T09:59:17.500Z,7.30
2022-09-25T10:00:17.506Z,7.50
2022-09-25T10:01:37.011Z,4.40
2022-09-25T10:02:18.695Z,10.00
2022-09-25T10:03:17.546Z,9.40
2022-09-25T10:04:17.545Z,7.60
2022-09-25T10:05:17.433Z,3.80
2022-09-25T10:06:22.406Z,6.00
2022-09-25T10:07:18.417Z,5.20
2022-09-25T10:08:17.406Z,6.80
2022-09-25T10:09:17.397Z,4.90
2022-09-25T10:10:17.368Z,5.10
2022-09-25T10:11:17.356Z,6.50
2022-09-25T10:12:17.344Z,5.90
2022-09-25T10:13:17.341Z,5.30
2022-09-25T10:14:17.336Z,7.20
2022-09-25T10:15:17.315Z,5.80
2022-09-25T10:16:17.378Z,6.00
2022-09-25T10:17:17.288Z,2.50
2022-09-25T10:18:17.290Z,6.30
2022-09-25T10:19:17.264Z,3.90
2022-09-25T10:20:17.276Z,4.70
2022-09-25T10:21:17.251Z,3.90
2022-09-25T10:22:17.441Z,6.30
2022-09-25T10:23:17.241Z,4.20
2022-09-25T10:24:17.228Z,3.90
2022-09-25T10:25:17.210Z,5.50
2022-09-25T10:26:17.195Z,5.50
2022-09-25T10:27:17.191Z,5.60
2022-09-25T10:28:17.173Z,8.10
2022-09-25T10:29:17.152Z,5.80
2022-09-25T10:30:17.163Z,6.30
2022-09-25T10:31:17.171Z,3.50
2022-09-25T10:32:17.127Z,7.30
2022-09-25T10:33:17.111Z,1.90
2022-09-25T10:34:17.097Z,6.20
2022-09-25T10:35:17.090Z,4.30
2022-09-25T10:36:17.198Z,7.70
2022-09-25T10:37:17.083Z,4.90
2022-09-25T10:38:17.057Z,4.60
2022-09-25T10:39:42.365Z,6.80
2022-09-25T10:40:18.083Z,3.20
2022-09-25T10:41:17.018Z,5.30
2022-09-25T10:42:17.032Z,5.00
2022-09-25T10:43:17.004Z,3.30
2022-09-25T10:44:17.004Z,4.30
2022-09-25T10:45:16.996Z,7.20
2022-09-25T10:46:17.052Z,7.80
2022-09-25T10:47:16.956Z,4.10
2022-09-25T10:48:16.958Z,7.50
2022-09-25T10:49:16.936Z,2.50
2022-09-25T10:50:16.924Z,2.90
2022-09-25T10:51:16.930Z,3.10
2022-09-25T10:52:16.917Z,3.10
2022-09-25T10:53:16.889Z,3.80
2022-09-25T10:54:16.871Z,5.50
2022-09-25T10:55:16.989Z,4.20
2022-09-25T10:56:16.855Z,4.40
2022-09-25T10:57:16.869Z,5.40
2022-09-25T10:58:16.841Z,3.60
2022-09-25T10:59:16.983Z,5.00
2022-09-25T11:00:16.811Z,5.90
2022-09-25T11:01:16.848Z,4.00
2022-09-25T11:02:16.917Z,2.70
2022-09-25T11:03:17.478Z,2.90
2022-09-25T11:04:16.757Z,4.00
2022-09-25T11:05:16.754Z,4.00
2022-09-25T11:06:16.749Z,5.20
2022-09-25T11:07:16.737Z,4.30
2022-09-25T11:08:16.734Z,5.20
2022-09-25T11:09:16.703Z,3.60
2022-09-25T11:10:16.703Z,6.70
2022-09-25T11:11:16.685Z,3.50
2022-09-25T11:12:16.704Z,4.30
2022-09-25T11:13:16.677Z,4.50
2022-09-25T11:14:16.644Z,2.00
2022-09-25T11:15:16.632Z,3.30
2022-09-25T11:16:16.735Z,2.00
2022-09-25T11:17:16.632Z,4.60
2022-09-25T11:18:16.608Z,3.60
2022-09-25T11:19:16.794Z,2.40
2022-09-25T11:20:16.800Z,2.40
2022-09-25T11:21:16.573Z,5.00
2022-09-25T11:22:16.558Z,2.80
2022-09-25T11:23:16.559Z,2.00
2022-09-25T11:24:16.675Z,3.40
2022-09-25T11:25:16.550Z,4.40
2022-09-25T11:26:16.524Z,5.60
2022-09-25T11:27:16.499Z,3.70
2022-09-25T11:28:16.492Z,3.60
2022-09-25T11:29:16.588Z,2.80
2022-09-25T11:30:16.479Z,3.00
2022-09-25T11:31:16.505Z,2.30
2022-09-25T11:32:16.456Z,4.30
2022-09-25T11:33:16.432Z,2.60
2022-09-25T11:34:16.419Z,2.90
2022-09-25T11:35:16.418Z,3.60
2022-09-25T11:36:16.412Z,2.80
2022-09-25T11:37:16.392Z,2.10
2022-09-25T11:38:16.401Z,5.40
2022-09-25T11:39:16.403Z,4.90
2022-09-25T11:40:16.559Z,2.00
2022-09-25T11:41:16.358Z,3.80
2022-09-25T11:42:16.351Z,6.20
2022-09-25T11:43:16.331Z,2.30
2022-09-25T11:44:16.314Z,5.20
2022-09-25T11:45:16.320Z,2.00
2022-09-25T11:46:16.324Z,3.30
2022-09-25T11:47:16.273Z,4.50
2022-09-25T11:48:16.268Z,2.00
2022-09-25T11:49:16.630Z,3.60
2022-09-25T11:50:16.257Z,3.10
2022-09-25T11:51:16.235Z,5.00
2022-09-25T11:52:16.224Z,1.80
2022-09-25T11:53:16.205Z,2.90
2022-09-25T11:54:32.430Z,1.70
2022-09-25T11:55:17.186Z,2.40
2022-09-25T11:56:16.283Z,2.50
2022-09-25T11:57:16.174Z,3.20
2022-09-25T11:58:16.161Z,3.70
2022-09-25T11:59:16.138Z,2.50
2022-09-25T12:00:16.138Z,2.50
2022-09-25T12:01:16.188Z,3.70
2022-09-25T12:02:16.165Z,3.00
2022-09-25T12:03:16.098Z,2.70
2022-09-25T12:04:16.093Z,4.70
2022-09-25T12:05:16.076Z,2.40
2022-09-25T12:06:16.073Z,1.30
2022-09-25T12:07:16.048Z,2.20
2022-09-25T12:08:16.049Z,3.00
2022-09-25T12:09:16.057Z,8.10
2022-09-25T12:10:16.024Z,3.30
2022-09-25T12:11:16.010Z,5.30
2022-09-25T12:12:16.023Z,3.30
2022-09-25T12:13:16.024Z,2.60
2022-09-25T12:14:15.976Z,2.30
2022-09-25T12:15:16.012Z,3.10
2022-09-25T12:16:15.968Z,1.60
2022-09-25T12:17:15.956Z,1.10
2022-09-25T12:18:15.938Z,2.40
2022-09-25T12:19:15.914Z,2.00
2022-09-25T12:20:15.925Z,1.70
2022-09-25T12:21:15.896Z,3.10
2022-09-25T12:22:15.885Z,1.50
2022-09-25T12:23:15.879Z,3.30
2022-09-25T12:24:15.858Z,1.40
2022-09-25T12:25:15.859Z,2.20
2022-09-25T12:26:15.836Z,2.90
2022-09-25T12:27:15.839Z,2.80
2022-09-25T12:28:15.835Z,3.00
2022-09-25T12:29:15.808Z,2.20
2022-09-25T12:30:15.815Z,2.40
2022-09-25T12:31:15.855Z,3.20
2022-09-25T12:32:15.770Z,5.70
2022-09-25T12:33:15.755Z,2.70
2022-09-25T12:34:15.743Z,1.80
2022-09-25T12:35:15.732Z,3.20
2022-09-25T12:36:15.739Z,4.00
2022-09-25T12:37:15.734Z,2.60
2022-09-25T12:38:15.706Z,3.60
2022-09-25T12:39:15.705Z,3.50
2022-09-25T12:40:15.743Z,1.70
2022-09-25T12:41:15.674Z,2.40
2022-09-25T12:42:15.667Z,2.70
2022-09-25T12:43:15.655Z,2.70
2022-09-25T12:44:15.652Z,1.30
2022-09-25T12:45:15.628Z,2.20
2022-09-25T12:46:15.685Z,0.60
2022-09-25T12:47:15.599Z,1.50
2022-09-25T12:48:15.601Z,3.60
2022-09-25T12:49:15.592Z,6.00
2022-09-25T12:50:15.572Z,3.70
2022-09-25T12:51:15.578Z,5.10
2022-09-25T12:52:15.543Z,1.80
2022-09-25T12:53:15.548Z,1.80
2022-09-25T12:54:15.546Z,1.90
2022-09-25T12:55:15.531Z,1.70
2022-09-25T12:56:15.502Z,1.70
2022-09-25T12:57:15.504Z,1.80
2022-09-25T12:58:15.489Z,1.50
2022-09-25T12:59:15.480Z,2.30
2022-09-25T13:00:15.557Z,1.40
2022-09-25T13:01:15.508Z,4.00
2022-09-25T13:02:15.489Z,2.00
2022-09-25T13:03:15.430Z,4.40
2022-09-25T13:04:15.412Z,1.70